createdAt,value
2018-07-08T19:24:27.035Z,30.60
2018-07-08T19:26:54.936Z,32.30
2018-07-08T19:29:23.437Z,32.90
2018-07-08T19:31:51.724Z,32.70
2018-07-08T19:34:19.635Z,31.30
2018-07-08T19:36:47.510Z,30.40
2018-07-08T19:39:15.412Z,30.50
2018-07-08T19:41:43.329Z,30.70
2018-07-08T19:44:11.298Z,31.00
2018-07-08T19:46:39.217Z,31.30
2018-07-08T19:49:07.171Z,31.50
2018-07-08T19:51:35.072Z,31.60
2018-07-08T19:54:03.288Z,31.60
2018-07-08T19:56:31.208Z,31.90
2018-07-08T19:58:59.495Z,32.20
2018-07-08T20:01:27.669Z,32.30
2018-07-08T20:03:55.844Z,32.40
2018-07-08T20:06:24.664Z,32.50
2018-07-08T20:08:52.565Z,32.70
2018-07-08T20:11:20.507Z,32.90
2018-07-08T20:13:48.437Z,33.20
2018-07-08T20:16:16.384Z,33.30
2018-07-08T20:18:44.313Z,33.40
2018-07-08T20:21:12.272Z,33.40
2018-07-08T20:23:40.244Z,33.80
2018-07-08T20:26:08.052Z,34.90
2018-07-08T20:28:35.849Z,35.30
2018-07-08T20:31:03.768Z,36.10
2018-07-08T20:33:31.545Z,36.10
2018-07-08T20:35:59.524Z,36.20
2018-07-08T20:38:27.400Z,35.90
2018-07-08T20:40:55.492Z,36.20
2018-07-08T20:43:23.318Z,35.90
2018-07-08T20:45:51.299Z,36.00
2018-07-08T20:48:19.147Z,36.30
2018-07-08T20:50:47.105Z,36.60
2018-07-08T20:53:15.114Z,36.90
2018-07-08T20:55:43.028Z,37.30
2018-07-08T20:58:10.859Z,38.20
2018-07-08T21:00:38.760Z,39.40
2018-07-08T21:03:06.773Z,39.20
2018-07-08T21:05:34.612Z,38.50
2018-07-08T21:08:02.392Z,38.40
2018-07-08T21:10:30.416Z,38.40
2018-07-08T21:12:58.198Z,38.80
2018-07-08T21:15:26.110Z,38.80
2018-07-08T21:17:53.997Z,38.80
2018-07-08T21:20:21.972Z,38.90
2018-07-08T21:22:49.836Z,38.90
2018-07-08T21:25:17.816Z,39.30
2018-07-08T21:27:45.896Z,38.50
2018-07-08T21:30:13.735Z,38.10
2018-07-08T21:32:41.804Z,38.10
2018-07-08T21:35:09.738Z,38.20
2018-07-08T21:37:37.528Z,38.20
2018-07-08T21:40:05.408Z,38.30
2018-07-08T21:42:33.488Z,38.50
2018-07-08T21:45:01.344Z,38.60
2018-07-08T21:47:29.240Z,38.80
2018-07-08T21:49:57.045Z,38.90
2018-07-08T21:52:24.912Z,39.20
2018-07-08T21:54:52.805Z,39.20
2018-07-08T21:57:20.802Z,39.10
2018-07-08T21:59:48.616Z,38.90
2018-07-08T22:02:20.442Z,39.00
2018-07-08T22:04:48.418Z,38.90
2018-07-08T22:07:22.660Z,38.90
2018-07-08T22:09:51.484Z,39.10
2018-07-08T22:12:19.469Z,39.20
2018-07-08T22:14:47.515Z,39.40
2018-07-08T22:17:15.412Z,40.00
2018-07-08T22:19:43.297Z,40.50
2018-07-08T22:22:11.114Z,40.50
2018-07-08T22:24:38.992Z,40.40
2018-07-08T22:27:06.864Z,40.40
2018-07-08T22:32:02.823Z,40.60
2018-07-08T22:34:30.700Z,41.00
2018-07-08T22:36:58.524Z,41.40
2018-07-08T22:39:26.475Z,41.60
2018-07-08T22:41:54.321Z,41.60
2018-07-08T22:44:22.152Z,41.60
2018-07-08T22:46:49.976Z,41.90
2018-07-08T22:49:17.970Z,42.10
2018-07-08T22:51:45.880Z,42.40
2018-07-08T22:54:13.791Z,42.70
2018-07-08T22:56:41.728Z,43.00
2018-07-08T22:59:09.660Z,43.80
2018-07-08T23:02:44.419Z,44.30
2018-07-08T23:05:12.500Z,44.60
2018-07-08T23:07:40.793Z,45.20
2018-07-08T23:10:09.335Z,45.20
2018-07-08T23:12:37.336Z,45.20
2018-07-08T23:15:05.556Z,45.40
2018-07-08T23:17:33.417Z,45.70
2018-07-08T23:20:01.673Z,46.10
2018-07-08T23:22:40.781Z,46.30
2018-07-08T23:25:09.344Z,46.40
2018-07-08T23:27:37.244Z,46.50
2018-07-08T23:30:05.406Z,46.50
2018-07-08T23:32:33.317Z,46.80
2018-07-08T23:35:01.121Z,46.80
2018-07-08T23:37:29.231Z,46.80
2018-07-08T23:39:57.075Z,46.60
2018-07-08T23:42:24.932Z,46.90
2018-07-08T23:44:52.744Z,47.30
2018-07-08T23:47:20.591Z,47.60
2018-07-08T23:49:48.468Z,47.70
2018-07-08T23:54:44.110Z,48.20
2018-07-08T23:57:12.025Z,48.30
2018-07-08T23:59:39.920Z,48.00
